Time;durP1;ratioP1;P1;durP2;ratioP2;P2;SDS_P1;SDS_P2;PMS_P1;PMS_P2;Temp;Humidity;BMP_temperature;BMP_pressure;BME280_temperature;BME280_humidity;BME280_pressure;Samples;Min_cycle;Max_cycle;Signal;HPM_P1;HPM_P2
2021/09/02 00:00:04;;;;;;;8.18;4.07;;;;;;;;;;5034209;28;20048;-50
2021/09/02 00:02:29;;;;;;;10.82;3.63;;;;;;;;;;5034003;28;20021;-50
2021/09/02 00:04:55;;;;;;;6.93;3.78;;;;;;;;;;5032605;28;20091;-50
2021/09/02 00:07:22;;;;;;;6.15;3.67;;;;;;;;;;5033106;28;20026;-50
2021/09/02 00:09:48;;;;;;;5.80;3.58;;;;;;;;;;5032701;28;20041;-51
2021/09/02 00:12:14;;;;;;;16.90;3.92;;;;;;;;;;5033571;28;20032;-50
2021/09/02 00:14:40;;;;;;;6.40;3.72;;;;;;;;;;5032811;28;20428;-51
2021/09/02 00:17:06;;;;;;;6.93;4.15;;;;;;;;;;5033176;28;20079;-50
2021/09/02 00:19:33;;;;;;;8.13;4.20;;;;;;;;;;5033332;28;20399;-50
2021/09/02 00:21:59;;;;;;;6.68;3.80;;;;;;;;;;5033605;28;20030;-50
2021/09/02 00:24:25;;;;;;;6.82;3.65;;;;;;;;;;5032010;28;20035;-50
2021/09/02 00:26:51;;;;;;;7.40;3.95;;;;;;;;;;5032664;28;20025;-50
2021/09/02 00:29:17;;;;;;;7.00;3.83;;;;;;;;;;5033635;28;20059;-50
2021/09/02 00:31:43;;;;;;;7.97;3.20;;;;;;;;;;5033138;28;20025;-50
2021/09/02 00:34:09;;;;;;;10.15;3.90;;;;;;;;;;5032628;28;20347;-51
2021/09/02 00:36:36;;;;;;;6.43;3.38;;;;;;;;;;5033119;28;20033;-51
2021/09/02 00:39:02;;;;;;;7.57;3.88;;;;;;;;;;5032971;28;20198;-50
2021/09/02 00:41:28;;;;;;;11.80;3.92;;;;;;;;;;5032381;28;20022;-50
2021/09/02 00:43:54;;;;;;;11.68;3.70;;;;;;;;;;5032047;28;20032;-50
2021/09/02 00:46:20;;;;;;;8.40;4.10;;;;;;;;;;5031437;28;20021;-50
2021/09/02 00:48:47;;;;;;;7.85;3.45;;;;;;;;;;5033126;28;20030;-51
2021/09/02 00:51:14;;;;;;;5.18;3.50;;;;;;;;;;5032939;28;20025;-51
2021/09/02 00:53:41;;;;;;;10.63;3.80;;;;;;;;;;5023070;28;20030;-51
2021/09/02 00:56:07;;;;;;;6.78;3.75;;;;;;;;;;5021713;28;20029;-50
2021/09/02 00:58:33;;;;;;;7.72;3.80;;;;;;;;;;5033011;28;20032;-50
2021/09/02 01:00:59;;;;;;;7.40;3.30;;;;;;;;;;5032800;28;20045;-50
2021/09/02 01:03:25;;;;;;;6.82;3.13;;;;;;;;;;5016083;28;20088;-51
2021/09/02 01:05:54;;;;;;;5.88;3.40;;;;;;;;;;5012881;28;20044;-51
2021/09/02 01:08:20;;;;;;;8.02;4.03;;;;;;;;;;5018120;28;20018;-51
2021/09/02 01:10:50;;;;;;;7.95;4.10;;;;;;;;;;5031608;28;20620;-51
2021/09/02 01:13:16;;;;;;;7.25;3.60;;;;;;;;;;5032869;28;20026;-50
2021/09/02 01:15:42;;;;;;;5.43;3.60;;;;;;;;;;5032251;28;20025;-50
2021/09/02 01:18:08;;;;;;;7.90;3.72;;;;;;;;;;5033177;28;20029;-50
2021/09/02 01:20:34;;;;;;;8.35;3.72;;;;;;;;;;5036834;28;20083;-51
2021/09/02 01:23:01;;;;;;;6.28;3.33;;;;;;;;;;5036406;28;20529;-50
2021/09/02 01:25:28;;;;;;;14.57;3.80;;;;;;;;;;5034917;28;20128;-50
2021/09/02 01:27:56;;;;;;;7.57;4.07;;;;;;;;;;5036569;28;20110;-51
2021/09/02 01:30:22;;;;;;;7.45;3.88;;;;;;;;;;5036155;28;20125;-50
2021/09/02 01:32:50;;;;;;;7.85;4.28;;;;;;;;;;5036477;28;20347;-51
2021/09/02 01:35:16;;;;;;;8.68;3.88;;;;;;;;;;5036169;28;20029;-50
2021/09/02 01:37:53;;;;;;;10.05;4.60;;;;;;;;;;5036241;28;20450;-50
2021/09/02 01:40:25;;;;;;;8.77;3.70;;;;;;;;;;5027542;28;20167;-50
2021/09/02 01:42:52;;;;;;;7.93;4.20;;;;;;;;;;5035079;28;20036;-50
2021/09/02 01:45:18;;;;;;;7.97;3.60;;;;;;;;;;5035871;28;20045;-50
2021/09/02 01:47:45;;;;;;;10.95;4.45;;;;;;;;;;5036555;28;20060;-50
2021/09/02 01:50:17;;;;;;;7.85;4.07;;;;;;;;;;5036372;28;20057;-50
2021/09/02 01:52:43;;;;;;;10.10;4.28;;;;;;;;;;5036362;28;20083;-50
2021/09/02 01:55:10;;;;;;;7.65;3.78;;;;;;;;;;5035168;28;20078;-50
2021/09/02 01:57:36;;;;;;;5.97;3.67;;;;;;;;;;5035159;28;20120;-50
2021/09/02 02:00:09;;;;;;;9.40;4.20;;;;;;;;;;5036109;28;20113;-50
2021/09/02 02:02:36;;;;;;;8.30;3.90;;;;;;;;;;5036198;28;20448;-50
2021/09/02 02:05:02;;;;;;;8.10;3.80;;;;;;;;;;5034988;28;20033;-50
2021/09/02 02:07:28;;;;;;;7.80;4.43;;;;;;;;;;5035794;28;20032;-50
2021/09/02 02:09:54;;;;;;;9.52;4.47;;;;;;;;;;5027734;28;20105;-50
2021/09/02 02:12:20;;;;;;;6.40;3.65;;;;;;;;;;5029438;28;20037;-50
2021/09/02 02:14:46;;;;;;;6.40;3.80;;;;;;;;;;5035178;28;20025;-50
2021/09/02 02:17:12;;;;;;;6.40;3.88;;;;;;;;;;5035825;28;20080;-50
2021/09/02 02:19:38;;;;;;;9.55;4.22;;;;;;;;;;5035273;28;20436;-50
2021/09/02 02:22:05;;;;;;;7.95;4.18;;;;;;;;;;5035705;28;20083;-50
2021/09/02 02:24:31;;;;;;;8.55;4.05;;;;;;;;;;5034137;28;20461;-50
2021/09/02 02:26:57;;;;;;;7.13;3.78;;;;;;;;;;5034141;28;20067;-50
2021/09/02 02:29:23;;;;;;;6.60;3.72;;;;;;;;;;5035177;28;20057;-50
2021/09/02 02:31:49;;;;;;;8.88;4.53;;;;;;;;;;5035663;28;20017;-50
2021/09/02 02:34:15;;;;;;;7.03;4.13;;;;;;;;;;5034189;28;20431;-50
2021/09/02 02:36:41;;;;;;;5.25;3.92;;;;;;;;;;5035317;28;20048;-50
2021/09/02 02:39:07;;;;;;;12.05;4.32;;;;;;;;;;5034605;28;20447;-51
2021/09/02 02:41:33;;;;;;;7.43;3.85;;;;;;;;;;5034578;28;20036;-50
2021/09/02 02:44:00;;;;;;;10.38;4.75;;;;;;;;;;5034320;28;20033;-50
2021/09/02 02:46:26;;;;;;;9.50;4.72;;;;;;;;;;5035555;28;20021;-50
2021/09/02 02:48:52;;;;;;;7.35;4.28;;;;;;;;;;5035352;28;20025;-50
2021/09/02 02:51:18;;;;;;;7.18;3.60;;;;;;;;;;5035204;28;20022;-50
2021/09/02 02:53:44;;;;;;;6.03;3.42;;;;;;;;;;5033602;28;20037;-51
2021/09/02 02:56:10;;;;;;;9.80;4.13;;;;;;;;;;5034964;28;20032;-50
2021/09/02 02:58:36;;;;;;;8.38;4.28;;;;;;;;;;5034496;28;20029;-51
2021/09/02 03:01:02;;;;;;;8.43;4.20;;;;;;;;;;5035507;28;20025;-50
2021/09/02 03:03:28;;;;;;;6.25;4.03;;;;;;;;;;5034394;28;20017;-51
2021/09/02 03:05:54;;;;;;;8.38;4.00;;;;;;;;;;5034793;28;20116;-50
2021/09/02 03:08:20;;;;;;;7.38;4.43;;;;;;;;;;5033793;28;20084;-50
2021/09/02 03:10:46;;;;;;;7.18;3.75;;;;;;;;;;5035071;28;20021;-50
2021/09/02 03:13:12;;;;;;;8.80;4.30;;;;;;;;;;5034233;28;20033;-50
2021/09/02 03:15:38;;;;;;;9.88;3.83;;;;;;;;;;5034325;28;20100;-50
2021/09/02 03:18:04;;;;;;;7.90;3.78;;;;;;;;;;5034333;28;20093;-51
2021/09/02 03:20:30;;;;;;;5.35;3.45;;;;;;;;;;5034481;28;20089;-50
2021/09/02 03:22:57;;;;;;;7.20;4.15;;;;;;;;;;5034437;28;20459;-50
2021/09/02 03:25:23;;;;;;;7.18;3.80;;;;;;;;;;5033400;28;20103;-50
2021/09/02 03:27:49;;;;;;;9.25;4.50;;;;;;;;;;5033561;28;20130;-50
2021/09/02 03:30:15;;;;;;;10.55;4.40;;;;;;;;;;5034381;28;20045;-50
2021/09/02 03:32:41;;;;;;;8.13;3.97;;;;;;;;;;5033934;28;20108;-50
2021/09/02 03:35:07;;;;;;;14.63;4.70;;;;;;;;;;5033852;28;20108;-50
2021/09/02 03:37:33;;;;;;;6.05;4.13;;;;;;;;;;5033933;28;20049;-50
2021/09/02 03:39:59;;;;;;;9.48;4.10;;;;;;;;;;5033963;28;20083;-50
2021/09/02 03:42:25;;;;;;;7.90;4.05;;;;;;;;;;5032206;28;20261;-50
2021/09/02 03:44:51;;;;;;;12.98;4.20;;;;;;;;;;5033451;28;20040;-50
2021/09/02 03:47:17;;;;;;;16.20;3.70;;;;;;;;;;5034135;28;20341;-50
2021/09/02 03:49:43;;;;;;;8.77;3.60;;;;;;;;;;5034009;28;20033;-50
2021/09/02 03:52:10;;;;;;;7.65;4.07;;;;;;;;;;5033532;28;20026;-50
2021/09/02 03:54:35;;;;;;;13.48;4.55;;;;;;;;;;5032814;28;20100;-50
2021/09/02 03:57:01;;;;;;;8.20;3.88;;;;;;;;;;5033204;28;20120;-50
2021/09/02 03:59:27;;;;;;;8.00;4.68;;;;;;;;;;5033889;28;20037;-50
2021/09/02 04:01:53;;;;;;;8.88;4.32;;;;;;;;;;5033682;28;20357;-50
2021/09/02 04:04:19;;;;;;;11.05;4.53;;;;;;;;;;5033021;28;20030;-50
2021/09/02 04:06:45;;;;;;;17.75;4.30;;;;;;;;;;5033331;28;20124;-50
2021/09/02 04:09:11;;;;;;;9.05;4.38;;;;;;;;;;5033209;28;20021;-50
2021/09/02 04:11:37;;;;;;;11.38;4.28;;;;;;;;;;5033619;28;20037;-50
2021/09/02 04:14:03;;;;;;;6.05;4.05;;;;;;;;;;5032040;28;20026;-50
2021/09/02 04:16:29;;;;;;;5.78;3.88;;;;;;;;;;5033716;28;20065;-50
2021/09/02 04:18:55;;;;;;;8.40;4.15;;;;;;;;;;5033318;28;20032;-49
2021/09/02 04:21:21;;;;;;;9.52;4.25;;;;;;;;;;5033368;28;20382;-50
2021/09/02 04:23:49;;;;;;;5.82;3.90;;;;;;;;;;5031866;28;20036;-50
2021/09/02 04:26:15;;;;;;;16.85;4.50;;;;;;;;;;5033156;28;20112;-50
2021/09/02 04:28:41;;;;;;;9.45;4.47;;;;;;;;;;5032333;28;20041;-50
2021/09/02 04:31:07;;;;;;;9.02;3.53;;;;;;;;;;5033544;28;20024;-50
2021/09/02 04:33:33;;;;;;;10.35;3.95;;;;;;;;;;5032596;28;20067;-50
2021/09/02 04:35:59;;;;;;;8.27;3.92;;;;;;;;;;5033094;28;20029;-50
2021/09/02 04:38:25;;;;;;;7.85;4.43;;;;;;;;;;5033089;28;20351;-50
2021/09/02 04:40:51;;;;;;;7.15;3.55;;;;;;;;;;5032813;28;20044;-50
2021/09/02 04:43:18;;;;;;;9.48;4.90;;;;;;;;;;5031951;28;20407;-50
2021/09/02 04:45:44;;;;;;;11.93;4.55;;;;;;;;;;5032657;28;20041;-50
2021/09/02 04:48:14;;;;;;;6.55;4.20;;;;;;;;;;5033063;28;20045;-50
2021/09/02 04:50:41;;;;;;;6.32;3.85;;;;;;;;;;5032749;28;20363;-50
2021/09/02 04:53:07;;;;;;;7.75;4.45;;;;;;;;;;5032811;28;20037;-50
2021/09/02 04:55:33;;;;;;;9.68;4.38;;;;;;;;;;5031920;28;20029;-50
2021/09/02 04:58:03;;;;;;;9.80;4.78;;;;;;;;;;5032204;28;20021;-50
2021/09/02 05:00:29;;;;;;;8.33;4.97;;;;;;;;;;5032795;28;20033;-50
2021/09/02 05:02:55;;;;;;;7.90;4.65;;;;;;;;;;5032936;28;20029;-50
2021/09/02 05:05:21;;;;;;;13.43;5.40;;;;;;;;;;5031998;28;20041;-50
2021/09/02 05:07:47;;;;;;;8.27;4.25;;;;;;;;;;5032868;28;20064;-50
2021/09/02 05:10:14;;;;;;;8.85;4.30;;;;;;;;;;5032257;28;20037;-50
2021/09/02 05:12:40;;;;;;;14.93;5.25;;;;;;;;;;5031730;28;20033;-50
2021/09/02 05:15:06;;;;;;;8.07;4.47;;;;;;;;;;5031913;28;20427;-50
2021/09/02 05:17:32;;;;;;;10.77;4.85;;;;;;;;;;5032578;28;20029;-50
2021/09/02 05:19:58;;;;;;;8.15;4.95;;;;;;;;;;5032547;28;20041;-50
2021/09/02 05:22:24;;;;;;;7.65;4.30;;;;;;;;;;5032915;28;20022;-50
2021/09/02 05:24:50;;;;;;;7.88;4.60;;;;;;;;;;5030905;28;20474;-50
2021/09/02 05:27:16;;;;;;;8.52;4.43;;;;;;;;;;5032672;28;20038;-50
2021/09/02 05:29:42;;;;;;;8.20;4.45;;;;;;;;;;5031983;28;20026;-51
2021/09/02 05:32:08;;;;;;;10.48;5.68;;;;;;;;;;5032061;28;20112;-50
2021/09/02 05:34:34;;;;;;;8.60;4.28;;;;;;;;;;5031973;28;20037;-50
2021/09/02 05:37:00;;;;;;;7.05;3.72;;;;;;;;;;5032599;28;20014;-51
2021/09/02 05:39:26;;;;;;;19.02;5.75;;;;;;;;;;5032147;28;20026;-52
2021/09/02 05:41:53;;;;;;;11.10;5.05;;;;;;;;;;5032659;28;20419;-51
2021/09/02 05:44:20;;;;;;;11.38;4.82;;;;;;;;;;5031203;28;20112;-51
2021/09/02 05:46:46;;;;;;;9.88;5.10;;;;;;;;;;5032080;28;20035;-51
2021/09/02 05:49:12;;;;;;;9.23;5.28;;;;;;;;;;5032341;28;20467;-51
2021/09/02 05:51:38;;;;;;;7.88;4.15;;;;;;;;;;5032592;28;20090;-51
2021/09/02 05:54:04;;;;;;;11.52;5.72;;;;;;;;;;5031616;28;20121;-51
2021/09/02 05:56:30;;;;;;;9.20;4.85;;;;;;;;;;5023758;28;20026;-52
2021/09/02 05:58:56;;;;;;;7.63;4.28;;;;;;;;;;5031411;28;20359;-52
2021/09/02 06:01:22;;;;;;;8.25;4.32;;;;;;;;;;5031951;28;20344;-52
2021/09/02 06:03:48;;;;;;;11.98;5.40;;;;;;;;;;5031628;28;20359;-51
2021/09/02 06:06:14;;;;;;;9.68;4.30;;;;;;;;;;5035846;28;20040;-52
2021/09/02 06:08:41;;;;;;;19.35;5.13;;;;;;;;;;5035618;28;20105;-52
2021/09/02 06:11:07;;;;;;;9.10;3.72;;;;;;;;;;5035334;28;20029;-52
2021/09/02 06:13:33;;;;;;;8.93;4.80;;;;;;;;;;5034517;28;20029;-52
2021/09/02 06:16:00;;;;;;;6.68;4.15;;;;;;;;;;5035478;28;20156;-52
2021/09/02 06:18:26;;;;;;;8.77;4.10;;;;;;;;;;5036192;28;20026;-52
2021/09/02 06:20:52;;;;;;;10.13;4.50;;;;;;;;;;5035749;28;20028;-52
2021/09/02 06:23:18;;;;;;;12.73;5.53;;;;;;;;;;5035424;28;20021;-52
2021/09/02 06:25:44;;;;;;;54.53;5.28;;;;;;;;;;5034224;28;20061;-52
2021/09/02 06:28:11;;;;;;;11.40;5.22;;;;;;;;;;5034661;28;20399;-52
2021/09/02 06:30:37;;;;;;;24.60;5.63;;;;;;;;;;5035032;28;20095;-52
2021/09/02 06:33:03;;;;;;;14.35;5.72;;;;;;;;;;5035493;28;20029;-52
2021/09/02 06:35:29;;;;;;;11.30;5.93;;;;;;;;;;5035151;28;20421;-52
2021/09/02 06:37:55;;;;;;;22.95;7.30;;;;;;;;;;5035812;28;20028;-52
2021/09/02 06:40:21;;;;;;;14.98;7.10;;;;;;;;;;5034646;28;20040;-52
2021/09/02 06:42:47;;;;;;;17.50;6.55;;;;;;;;;;5035021;28;20116;-52
2021/09/02 06:45:13;;;;;;;14.57;6.60;;;;;;;;;;5033955;28;20025;-52
2021/09/02 06:47:39;;;;;;;16.55;7.47;;;;;;;;;;5035192;28;20033;-53
2021/09/02 06:50:09;;;;;;;24.20;8.02;;;;;;;;;;5033813;28;20053;-53
2021/09/02 06:52:35;;;;;;;23.05;10.23;;;;;;;;;;5035449;28;20044;-52
2021/09/02 06:55:02;;;;;;;22.23;9.68;;;;;;;;;;5027889;28;20034;-52
2021/09/02 06:57:28;;;;;;;22.85;11.48;;;;;;;;;;5024878;28;20028;-52
2021/09/02 06:59:55;;;;;;;26.95;13.48;;;;;;;;;;5034393;28;20022;-52
2021/09/02 07:02:21;;;;;;;28.98;14.27;;;;;;;;;;5035415;28;20029;-52
2021/09/02 07:04:47;;;;;;;31.05;12.95;;;;;;;;;;5021011;28;20033;-53
2021/09/02 07:07:13;;;;;;;37.53;15.18;;;;;;;;;;5015174;28;20034;-53
2021/09/02 07:09:39;;;;;;;41.92;17.23;;;;;;;;;;5016161;28;20026;-53
2021/09/02 07:12:05;;;;;;;48.67;17.05;;;;;;;;;;5034409;28;20067;-53
2021/09/02 07:14:32;;;;;;;41.90;12.95;;;;;;;;;;5033261;28;20052;-53
2021/09/02 07:16:58;;;;;;;54.15;18.33;;;;;;;;;;5033687;28;20032;-52
2021/09/02 07:19:24;;;;;;;52.17;17.80;;;;;;;;;;5034612;28;20021;-53
2021/09/02 07:21:50;;;;;;;77.88;20.27;;;;;;;;;;5033268;28;20025;-53
2021/09/02 07:24:16;;;;;;;52.28;18.25;;;;;;;;;;5033594;28;20109;-52
2021/09/02 07:26:43;;;;;;;58.38;18.65;;;;;;;;;;5033805;28;20389;-53
2021/09/02 07:29:09;;;;;;;51.08;17.48;;;;;;;;;;5033870;28;20025;-53
2021/09/02 07:31:42;;;;;;;43.05;16.45;;;;;;;;;;5034261;28;20029;-52
2021/09/02 07:34:08;;;;;;;67.18;21.65;;;;;;;;;;5034311;28;20033;-52
2021/09/02 07:36:34;;;;;;;64.22;20.75;;;;;;;;;;5034488;28;20340;-52
2021/09/02 07:39:00;;;;;;;64.28;19.33;;;;;;;;;;5034634;28;20021;-52
2021/09/02 07:41:26;;;;;;;53.30;18.27;;;;;;;;;;5033460;28;20076;-52
2021/09/02 07:43:52;;;;;;;45.10;14.13;;;;;;;;;;5032414;28;20398;-52
2021/09/02 07:46:18;;;;;;;57.33;17.17;;;;;;;;;;5033967;28;20044;-52
2021/09/02 07:48:47;;;;;;;73.75;21.92;;;;;;;;;;5034492;28;20021;-52
2021/09/02 07:51:14;;;;;;;39.92;13.57;;;;;;;;;;5033876;28;20074;-52
2021/09/02 07:53:40;;;;;;;65.65;20.27;;;;;;;;;;5033746;28;20071;-52
2021/09/02 07:56:06;;;;;;;48.75;18.45;;;;;;;;;;5033290;28;20026;-53
2021/09/02 07:58:33;;;;;;;71.32;21.75;;;;;;;;;;5033886;28;20563;-52
2021/09/02 08:00:59;;;;;;;69.65;23.65;;;;;;;;;;5033292;28;20028;-52
2021/09/02 08:03:25;;;;;;;66.45;21.25;;;;;;;;;;5033383;28;20029;-53
2021/09/02 08:05:51;;;;;;;53.67;16.23;;;;;;;;;;5033452;28;20509;-52
2021/09/02 08:08:17;;;;;;;69.10;18.08;;;;;;;;;;5033608;28;20402;-52
2021/09/02 08:10:44;;;;;;;60.17;18.85;;;;;;;;;;5032794;28;20026;-52
2021/09/02 08:13:10;;;;;;;56.95;17.27;;;;;;;;;;5033222;28;20550;-52
2021/09/02 08:15:36;;;;;;;74.93;23.65;;;;;;;;;;5032133;28;20032;-52
2021/09/02 08:18:02;;;;;;;51.47;16.02;;;;;;;;;;5033761;28;20017;-52
2021/09/02 08:20:28;;;;;;;69.13;18.73;;;;;;;;;;5033630;28;20413;-52
2021/09/02 08:22:54;;;;;;;62.97;21.05;;;;;;;;;;5033271;28;20455;-52
2021/09/02 08:25:21;;;;;;;62.83;19.92;;;;;;;;;;5032344;28;20076;-52
2021/09/02 08:27:47;;;;;;;71.97;20.90;;;;;;;;;;5032348;28;20026;-52
2021/09/02 08:30:14;;;;;;;68.28;19.67;;;;;;;;;;5032635;28;20059;-52
2021/09/02 08:32:46;;;;;;;42.38;14.07;;;;;;;;;;5033498;28;20045;-52
2021/09/02 08:35:12;;;;;;;57.22;18.35;;;;;;;;;;5032548;28;20038;-52
2021/09/02 08:37:38;;;;;;;53.85;19.92;;;;;;;;;;5033139;28;20088;-52
2021/09/02 08:40:06;;;;;;;57.53;18.30;;;;;;;;;;5033015;28;20028;-52
2021/09/02 08:42:32;;;;;;;35.55;15.00;;;;;;;;;;5025117;28;20020;-52
2021/09/02 08:44:58;;;;;;;55.25;18.85;;;;;;;;;;5031369;28;20042;-52
2021/09/02 08:47:24;;;;;;;44.20;17.50;;;;;;;;;;5033362;28;20028;-52
2021/09/02 08:49:50;;;;;;;35.67;13.82;;;;;;;;;;5032864;28;20029;-52
2021/09/02 08:52:17;;;;;;;30.98;15.32;;;;;;;;;;5033203;28;20026;-52
2021/09/02 08:54:43;;;;;;;31.20;13.23;;;;;;;;;;5032370;28;20414;-52
2021/09/02 08:57:09;;;;;;;35.28;12.93;;;;;;;;;;5032203;28;20452;-52
2021/09/02 08:59:35;;;;;;;17.33;9.10;;;;;;;;;;5032030;28;20021;-52
2021/09/02 09:02:01;;;;;;;20.73;8.38;;;;;;;;;;5032451;28;20529;-52
2021/09/02 09:04:34;;;;;;;15.73;8.00;;;;;;;;;;5032183;28;20079;-52
2021/09/02 09:07:00;;;;;;;10.25;6.93;;;;;;;;;;5032790;28;20036;-52
2021/09/02 09:09:26;;;;;;;11.93;6.85;;;;;;;;;;5033043;28;20022;-51
2021/09/02 09:11:57;;;;;;;13.80;7.75;;;;;;;;;;5032568;28;20021;-52
2021/09/02 09:14:26;;;;;;;12.43;6.63;;;;;;;;;;5031894;28;20025;-52
2021/09/02 09:16:53;;;;;;;11.43;6.65;;;;;;;;;;5031430;28;20028;-51
2021/09/02 09:19:39;;;;;;;12.98;6.40;;;;;;;;;;5032815;28;20029;-52
2021/09/02 09:22:06;;;;;;;9.38;5.13;;;;;;;;;;5032882;28;20057;-52
2021/09/02 09:24:43;;;;;;;15.05;6.07;;;;;;;;;;5032194;28;20038;-52
2021/09/02 09:27:09;;;;;;;24.92;7.13;;;;;;;;;;5031371;28;20041;-52
2021/09/02 09:29:35;;;;;;;11.65;5.93;;;;;;;;;;5032732;28;20017;-52
2021/09/02 09:32:13;;;;;;;15.80;6.82;;;;;;;;;;5031820;28;20413;-51
2021/09/02 09:34:47;;;;;;;12.75;6.07;;;;;;;;;;5031967;28;20025;-52
2021/09/02 09:37:13;;;;;;;11.80;6.05;;;;;;;;;;5032722;28;20032;-51
2021/09/02 09:39:39;;;;;;;15.13;6.93;;;;;;;;;;5033430;28;20444;-52
2021/09/02 09:42:06;;;;;;;10.75;5.55;;;;;;;;;;5035938;28;20159;-52
2021/09/02 09:44:32;;;;;;;14.90;5.88;;;;;;;;;;5027315;28;20033;-51
2021/09/02 09:47:10;;;;;;;9.48;5.40;;;;;;;;;;5035490;28;20034;-51
2021/09/02 09:49:47;;;;;;;11.13;5.10;;;;;;;;;;5036158;28;20033;-52
2021/09/02 09:52:20;;;;;;;8.38;4.95;;;;;;;;;;5036001;28;20014;-52
2021/09/02 09:54:47;;;;;;;9.40;5.55;;;;;;;;;;5035702;28;20099;-52
2021/09/02 09:57:13;;;;;;;11.70;5.30;;;;;;;;;;5035786;28;20101;-52
2021/09/02 09:59:41;;;;;;;8.63;5.60;;;;;;;;;;5035914;28;20033;-53
2021/09/02 10:02:07;;;;;;;6.47;4.55;;;;;;;;;;5035187;28;20456;-52
2021/09/02 10:04:35;;;;;;;10.15;4.10;;;;;;;;;;5035223;28;20030;-52
2021/09/02 10:07:04;;;;;;;10.70;5.20;;;;;;;;;;5035880;28;20354;-51
2021/09/02 10:09:32;;;;;;;11.90;5.03;;;;;;;;;;5036301;28;20416;-52
2021/09/02 10:11:59;;;;;;;8.98;4.28;;;;;;;;;;5035073;28;20276;-52
2021/09/02 10:14:25;;;;;;;14.02;5.03;;;;;;;;;;5035023;28;20033;-52
2021/09/02 10:16:51;;;;;;;13.18;4.60;;;;;;;;;;5035156;28;20040;-51
2021/09/02 10:19:17;;;;;;;9.32;4.97;;;;;;;;;;5035558;28;20116;-51
2021/09/02 10:21:44;;;;;;;10.23;4.88;;;;;;;;;;5036040;28;20018;-52
2021/09/02 10:24:29;;;;;;;7.55;3.85;;;;;;;;;;5034609;28;20025;-52
2021/09/02 10:26:55;;;;;;;8.60;4.65;;;;;;;;;;5035071;28;20028;-52
2021/09/02 10:29:37;;;;;;;11.38;4.45;;;;;;;;;;5035418;28;20029;-52
2021/09/02 10:32:21;;;;;;;8.43;4.30;;;;;;;;;;5034245;28;20829;-51
2021/09/02 10:34:47;;;;;;;9.15;5.07;;;;;;;;;;5034438;28;20455;-52
2021/09/02 10:37:33;;;;;;;11.10;4.38;;;;;;;;;;5035663;28;20076;-52
2021/09/02 10:40:00;;;;;;;9.90;5.07;;;;;;;;;;5034515;28;20060;-52
2021/09/02 10:42:45;;;;;;;8.43;4.30;;;;;;;;;;5034930;28;20029;-52
2021/09/02 10:45:27;;;;;;;8.25;4.38;;;;;;;;;;5034346;28;20041;-52
2021/09/02 10:47:53;;;;;;;7.15;3.97;;;;;;;;;;5034341;28;20033;-52
2021/09/02 10:50:21;;;;;;;10.30;4.20;;;;;;;;;;5034865;28;20021;-52
2021/09/02 10:52:47;;;;;;;9.60;4.35;;;;;;;;;;5035238;28;20103;-52
2021/09/02 10:55:27;;;;;;;8.40;4.53;;;;;;;;;;5034219;28;20029;-52
2021/09/02 10:57:53;;;;;;;6.73;3.90;;;;;;;;;;5034291;28;20032;-51
2021/09/02 11:00:31;;;;;;;7.82;4.50;;;;;;;;;;5034843;28;20021;-51
2021/09/02 11:03:13;;;;;;;10.20;4.18;;;;;;;;;;5034165;28;20036;-52
2021/09/02 11:05:41;;;;;;;8.30;3.83;;;;;;;;;;5034211;28;20466;-52
2021/09/02 11:08:07;;;;;;;9.48;4.10;;;;;;;;;;5035257;28;20029;-52
2021/09/02 11:10:33;;;;;;;7.22;3.70;;;;;;;;;;5034778;28;20458;-52
2021/09/02 11:13:01;;;;;;;7.10;3.78;;;;;;;;;;5034297;28;20029;-52
2021/09/02 11:15:28;;;;;;;8.25;4.15;;;;;;;;;;5034037;28;20029;-52
2021/09/02 11:17:55;;;;;;;10.30;4.40;;;;;;;;;;5033553;28;20525;-52
2021/09/02 11:20:22;;;;;;;8.40;4.07;;;;;;;;;;5034634;28;20479;-52
2021/09/02 11:22:49;;;;;;;11.07;4.20;;;;;;;;;;5034609;28;20022;-51
2021/09/02 11:25:15;;;;;;;9.95;4.05;;;;;;;;;;5033359;28;20418;-52
2021/09/02 11:27:42;;;;;;;7.13;3.72;;;;;;;;;;5033555;28;20459;-52
2021/09/02 11:30:12;;;;;;;7.65;3.10;;;;;;;;;;5034536;28;20513;-52
2021/09/02 11:32:38;;;;;;;7.68;3.72;;;;;;;;;;5033408;28;20040;-52
2021/09/02 11:35:04;;;;;;;7.72;3.95;;;;;;;;;;5033874;28;20029;-51
2021/09/02 11:37:37;;;;;;;9.05;3.70;;;;;;;;;;5034317;28;20367;-52
2021/09/02 11:40:03;;;;;;;6.63;3.67;;;;;;;;;;5034395;28;20018;-52
2021/09/02 11:42:32;;;;;;;8.52;3.13;;;;;;;;;;5033733;28;20075;-52
2021/09/02 11:44:59;;;;;;;9.40;3.65;;;;;;;;;;5033146;28;20075;-52
2021/09/02 11:47:32;;;;;;;5.47;3.40;;;;;;;;;;5033152;28;20040;-52
2021/09/02 11:49:58;;;;;;;6.45;3.67;;;;;;;;;;5034167;28;20026;-52
2021/09/02 11:52:24;;;;;;;7.28;3.80;;;;;;;;;;5034233;28;20025;-52
2021/09/02 11:54:50;;;;;;;5.68;2.90;;;;;;;;;;5033274;28;20017;-51
2021/09/02 11:57:24;;;;;;;5.47;3.72;;;;;;;;;;5032856;28;20044;-52
2021/09/02 11:59:50;;;;;;;5.65;3.30;;;;;;;;;;5034123;28;20348;-52
2021/09/02 12:02:17;;;;;;;11.80;4.07;;;;;;;;;;5032724;28;20033;-51
2021/09/02 12:04:47;;;;;;;8.80;3.60;;;;;;;;;;5032949;28;20041;-51
2021/09/02 12:07:14;;;;;;;8.00;3.67;;;;;;;;;;5034001;28;20287;-52
2021/09/02 12:09:43;;;;;;;8.13;3.50;;;;;;;;;;5033755;28;20047;-52
2021/09/02 12:12:09;;;;;;;5.30;3.60;;;;;;;;;;5032919;28;20092;-52
2021/09/02 12:14:35;;;;;;;5.43;3.60;;;;;;;;;;5033110;28;20026;-52
2021/09/02 12:17:09;;;;;;;6.43;3.85;;;;;;;;;;5032995;28;20520;-52
2021/09/02 12:19:54;;;;;;;12.57;3.42;;;;;;;;;;5033689;28;20029;-51
2021/09/02 12:22:21;;;;;;;14.18;3.78;;;;;;;;;;5033027;28;20110;-51
2021/09/02 12:24:48;;;;;;;7.50;3.40;;;;;;;;;;5032804;28;20505;-52
2021/09/02 12:27:14;;;;;;;7.40;3.40;;;;;;;;;;5032500;28;20033;-52
2021/09/02 12:29:50;;;;;;;10.27;3.67;;;;;;;;;;5032252;28;20036;-52
2021/09/02 12:32:20;;;;;;;6.43;2.97;;;;;;;;;;5032074;28;20038;-52
2021/09/02 12:34:47;;;;;;;7.32;3.90;;;;;;;;;;5031353;28;20033;-52
2021/09/02 12:37:14;;;;;;;6.45;2.97;;;;;;;;;;5032587;28;20090;-52
2021/09/02 12:39:46;;;;;;;10.20;3.63;;;;;;;;;;5032616;28;20022;-52
2021/09/02 12:42:20;;;;;;;6.82;3.30;;;;;;;;;;5032250;28;20037;-52
2021/09/02 12:44:46;;;;;;;7.28;3.60;;;;;;;;;;5031551;28;20116;-52
2021/09/02 12:47:19;;;;;;;6.38;3.53;;;;;;;;;;5031428;28;20423;-52
2021/09/02 12:49:46;;;;;;;7.00;4.00;;;;;;;;;;5032025;28;20512;-52
2021/09/02 12:52:13;;;;;;;17.75;3.90;;;;;;;;;;5032505;28;20056;-52
2021/09/02 12:54:58;;;;;;;7.47;3.80;;;;;;;;;;5031692;28;20021;-52
2021/09/02 12:57:24;;;;;;;5.63;2.95;;;;;;;;;;5031565;28;20165;-51
2021/09/02 12:59:50;;;;;;;7.82;3.88;;;;;;;;;;5031701;28;20025;-52
2021/09/02 13:02:16;;;;;;;8.13;3.72;;;;;;;;;;5035993;28;20044;-52
2021/09/02 13:04:41;;;;;;;6.03;3.45;;;;;;;;;;5020513;28;20765;-52
2021/09/02 13:07:07;;;;;;;5.20;3.40;;;;;;;;;;5044588;28;20180;-52
2021/09/02 13:09:33;;;;;;;9.15;4.03;;;;;;;;;;5037658;28;20026;-51
2021/09/02 13:11:59;;;;;;;6.72;3.53;;;;;;;;;;5045766;28;20343;-52
2021/09/02 13:14:26;;;;;;;5.82;3.67;;;;;;;;;;5030841;28;20457;-51
2021/09/02 13:16:52;;;;;;;6.85;3.90;;;;;;;;;;5032110;28;20340;-51
2021/09/02 13:19:18;;;;;;;6.25;3.78;;;;;;;;;;5031215;28;20029;-51
2021/09/02 13:21:44;;;;;;;7.97;3.22;;;;;;;;;;5029958;28;20101;-51
2021/09/02 13:24:10;;;;;;;4.95;3.00;;;;;;;;;;5024708;28;20032;-51
2021/09/02 13:26:36;;;;;;;7.30;3.28;;;;;;;;;;4996084;28;1117277;-56
2021/09/02 13:29:02;;;;;;;6.28;3.83;;;;;;;;;;5032279;28;20075;-51
2021/09/02 13:31:29;;;;;;;5.45;3.58;;;;;;;;;;5032206;28;20034;-51
2021/09/02 13:33:55;;;;;;;6.07;3.47;;;;;;;;;;5030944;28;20029;-51
2021/09/02 13:36:22;;;;;;;6.00;3.67;;;;;;;;;;5032405;28;20360;-51
2021/09/02 13:38:48;;;;;;;12.50;3.67;;;;;;;;;;5047911;28;20084;-51
2021/09/02 13:41:17;;;;;;;5.70;2.95;;;;;;;;;;5032520;28;20402;-51
2021/09/02 13:43:43;;;;;;;7.15;3.22;;;;;;;;;;5031215;28;20439;-51
2021/09/02 13:46:08;;;;;;;5.65;3.33;;;;;;;;;;5032259;28;20052;-51
2021/09/02 13:48:34;;;;;;;5.75;3.50;;;;;;;;;;5031204;28;20105;-51
2021/09/02 13:51:01;;;;;;;8.20;3.28;;;;;;;;;;5032772;28;20026;-52
2021/09/02 13:53:27;;;;;;;5.30;3.22;;;;;;;;;;5031861;28;20033;-51
2021/09/02 13:55:53;;;;;;;7.35;3.70;;;;;;;;;;5032175;28;20037;-51
2021/09/02 13:58:19;;;;;;;6.50;3.20;;;;;;;;;;5031848;28;20034;-52
2021/09/02 14:00:45;;;;;;;6.30;2.88;;;;;;;;;;5031983;28;20026;-51
2021/09/02 14:03:12;;;;;;;13.90;3.05;;;;;;;;;;5031717;28;20119;-52
2021/09/02 14:05:38;;;;;;;7.68;3.30;;;;;;;;;;5031128;28;20045;-51
2021/09/02 14:08:05;;;;;;;5.03;3.20;;;;;;;;;;5032638;28;20164;-51
2021/09/02 14:10:32;;;;;;;6.20;3.50;;;;;;;;;;5032564;28;20025;-51
2021/09/02 14:12:58;;;;;;;4.82;2.75;;;;;;;;;;5031561;28;20026;-51
2021/09/02 14:15:24;;;;;;;6.43;3.55;;;;;;;;;;5030982;28;20455;-51
2021/09/02 14:17:50;;;;;;;7.45;3.25;;;;;;;;;;5031456;28;20056;-51
2021/09/02 14:20:16;;;;;;;5.50;3.10;;;;;;;;;;5031998;28;20428;-51
2021/09/02 14:22:45;;;;;;;6.50;3.50;;;;;;;;;;5032140;28;20024;-51
2021/09/02 14:25:11;;;;;;;9.75;3.60;;;;;;;;;;5032069;28;20037;-52
2021/09/02 14:27:37;;;;;;;6.82;3.50;;;;;;;;;;5035052;28;20036;-51
2021/09/02 14:30:04;;;;;;;5.78;3.13;;;;;;;;;;5035158;28;20439;-51
2021/09/02 14:32:30;;;;;;;5.75;3.40;;;;;;;;;;5035604;28;20021;-51
2021/09/02 14:34:56;;;;;;;4.88;2.78;;;;;;;;;;5033836;28;20143;-51